Ana Sayfa
METAR-TAF:

METAR-TAF

Havaalanları :

Dallas/Fort Worth Uluslararası Havalimanı

Dallas / Fort Worth, Teksas, Amerika Birleşik Devletleri

Enlem: 32-53-49N, Boylam: 097-01-19W, yükseklik: 183 m

Güncel hava durumu gözlemi

Rapor saat 12:53 UTC de 54 dakika önce yapıldı.
Rüzgar güney/güneybatıdan 11 kt
Sıcaklık 27°C
Nem 74%
Basınç 1016 hPa
Görüş mesafesi: 16.1 km
8000 ft yükseklikte az bulutlu
30000 ft yükseklikte parçalı çok bulutlu

METAR: KDFW 161253Z 20011KT 10SM FEW080 BKN300 27/22 A3001 RMK AO2 SLP153 T02670217

Saat: 08:47 (13:47 UTC)

Tahmin

Rapor saat 11:20 UTC de 2 saat ve 27 dakika önce yapıldı.
Ayın 16'si saat 12 UTC'den ayın 17'si saat 18 UTC'ye kadar geçerli Tahmin
Rüzgar güneydan 12 kt
Görüş mesafesi: 10 km
5000 ft yükseklikte az bulutlu
30000 ft yükseklikte parçalı çok bulutlu

TAF: KDFW 161120Z 1612/1718 19012KT P6SM FEW050 BKN300

4.000'den fazla havaalanı için hava durumu gözlemleri ve tahminleri (METAR ve TAF raporları).

Kullanılabilir istasyonlar harita üzerinde sarı ve kırmızı noktalarla gösterilir.

İstasyonun adını görmek için fareyi noktanın üzerinde gezdirin.

Sonrasında hava gözlem ve tahminlerini görmek için tıklayın.

Haritayı değiştirmek için: yaklaştırmak için siyah artı işaretli yeşil düğmeye ve uzaklaştırmak için de eksi işaretli düğmeye hızla tıklayın; bitişik haritalar için yeşil okları kullanın.


METAR-TAF: